createdAt,value
2023-04-11T00:00:53.890Z,17.89
2023-04-11T00:01:53.985Z,17.78
2023-04-11T00:02:53.956Z,17.51
2023-04-11T00:03:54.020Z,17.94
2023-04-11T00:04:53.935Z,17.51
2023-04-11T00:05:53.820Z,17.99
2023-04-11T00:06:53.804Z,17.83
2023-04-11T00:07:53.794Z,17.72
2023-04-11T00:08:54.002Z,17.67
2023-04-11T00:09:53.788Z,17.67
2023-04-11T00:10:53.745Z,17.99
2023-04-11T00:11:53.740Z,17.67
2023-04-11T00:12:53.718Z,17.67
2023-04-11T00:13:53.719Z,17.46
2023-04-11T00:14:53.732Z,17.72
2023-04-11T00:15:53.703Z,17.67
2023-04-11T00:16:53.822Z,17.46
2023-04-11T00:17:53.755Z,17.67
2023-04-11T00:18:53.802Z,17.67
2023-04-11T00:19:53.655Z,17.83
2023-04-11T00:20:53.608Z,17.46
2023-04-11T00:21:53.620Z,17.94
2023-04-11T00:22:53.583Z,17.56
2023-04-11T00:23:53.583Z,17.56
2023-04-11T00:24:53.582Z,17.51
2023-04-11T00:25:53.542Z,17.46
2023-04-11T00:26:53.564Z,17.29
2023-04-11T00:27:53.524Z,17.46
2023-04-11T00:28:53.668Z,17.67
2023-04-11T00:29:53.493Z,17.29
2023-04-11T00:30:53.493Z,17.46
2023-04-11T00:31:53.497Z,17.99
2023-04-11T00:32:53.514Z,17.62
2023-04-11T00:33:53.445Z,17.56
2023-04-11T00:34:53.420Z,17.29
2023-04-11T00:35:53.504Z,17.78
2023-04-11T00:36:53.398Z,17.67
2023-04-11T00:37:53.374Z,17.40
2023-04-11T00:38:53.478Z,17.72
2023-04-11T00:39:53.355Z,17.56
2023-04-11T00:40:53.352Z,17.35
2023-04-11T00:41:53.330Z,17.99
2023-04-11T00:42:53.318Z,17.89
2023-04-11T00:43:53.307Z,17.51
2023-04-11T00:44:53.298Z,17.56
2023-04-11T00:45:53.339Z,17.29
2023-04-11T00:46:53.250Z,17.51
2023-04-11T00:47:53.356Z,17.78
2023-04-11T00:48:53.323Z,17.72
2023-04-11T00:49:53.233Z,17.78
2023-04-11T00:50:53.199Z,17.56
2023-04-11T00:51:53.184Z,17.51
2023-04-11T00:52:53.179Z,17.46
2023-04-11T00:53:53.168Z,17.46
2023-04-11T00:54:53.166Z,17.78
2023-04-11T00:55:53.133Z,17.56
2023-04-11T00:56:53.111Z,17.78
2023-04-11T00:57:53.103Z,17.35
2023-04-11T00:58:53.290Z,17.67
2023-04-11T00:59:53.087Z,17.72
2023-04-11T01:00:53.144Z,17.99
2023-04-11T01:01:53.133Z,17.51
2023-04-11T01:02:53.139Z,17.29
2023-04-11T01:03:53.081Z,17.83
2023-04-11T01:04:53.008Z,17.94
2023-04-11T01:05:53.006Z,17.35
2023-04-11T01:06:53.011Z,17.56
2023-04-11T01:07:52.981Z,17.29
2023-04-11T01:08:53.317Z,17.46
2023-04-11T01:09:52.943Z,17.78
2023-04-11T01:10:52.970Z,17.29
2023-04-11T01:11:52.910Z,17.67
2023-04-11T01:12:52.898Z,17.78
2023-04-11T01:13:52.895Z,17.67
2023-04-11T01:14:52.871Z,17.62
2023-04-11T01:15:52.882Z,17.35
2023-04-11T01:16:52.983Z,17.46
2023-04-11T01:17:52.888Z,17.56
2023-04-11T01:18:52.996Z,17.40
2023-04-11T01:19:52.801Z,17.24
2023-04-11T01:20:52.821Z,17.46
2023-04-11T01:21:52.791Z,17.51
2023-04-11T01:22:52.761Z,17.29
2023-04-11T01:23:52.811Z,17.72
2023-04-11T01:24:52.757Z,17.67
2023-04-11T01:25:52.750Z,17.29
2023-04-11T01:26:52.741Z,17.35
2023-04-11T01:27:52.696Z,17.51
2023-04-11T01:28:52.795Z,17.46
2023-04-11T01:29:52.689Z,17.72
2023-04-11T01:30:52.802Z,17.24
2023-04-11T01:31:52.633Z,17.35
2023-04-11T01:32:52.687Z,17.29
2023-04-11T01:33:52.626Z,17.46
2023-04-11T01:34:52.606Z,17.94
2023-04-11T01:35:52.636Z,17.46
2023-04-11T01:36:52.565Z,17.46
2023-04-11T01:37:52.554Z,17.78
2023-04-11T01:38:52.643Z,17.46
2023-04-11T01:39:52.532Z,17.72
2023-04-11T01:40:52.569Z,17.29
2023-04-11T01:41:52.506Z,17.56
2023-04-11T01:42:52.486Z,17.72
2023-04-11T01:43:52.480Z,17.40
2023-04-11T01:44:52.566Z,17.51
2023-04-11T01:45:52.457Z,17.51
2023-04-11T01:46:52.428Z,17.62
2023-04-11T01:47:52.579Z,17.29
2023-04-11T01:48:52.489Z,17.46
2023-04-11T01:49:52.409Z,17.46
2023-04-11T01:50:52.377Z,17.62
2023-04-11T01:51:52.370Z,17.72
2023-04-11T01:52:52.385Z,17.46
2023-04-11T01:53:52.385Z,17.24
2023-04-11T01:54:52.327Z,17.46
2023-04-11T01:55:52.344Z,17.56
2023-04-11T01:56:52.397Z,17.24
2023-04-11T01:57:52.307Z,17.56
2023-04-11T01:58:52.269Z,17.62
2023-04-11T01:59:52.272Z,17.35
2023-04-11T02:00:52.285Z,17.62
2023-04-11T02:01:52.262Z,17.51
2023-04-11T02:02:52.269Z,17.24
2023-04-11T02:03:52.279Z,17.29
2023-04-11T02:04:52.199Z,17.56
2023-04-11T02:05:52.200Z,17.67
2023-04-11T02:06:52.197Z,17.46
2023-04-11T02:07:52.153Z,17.46
2023-04-11T02:08:52.140Z,17.29
2023-04-11T02:09:52.137Z,17.24
2023-04-11T02:10:52.162Z,17.35
2023-04-11T02:11:52.108Z,17.56
2023-04-11T02:12:52.092Z,17.51
2023-04-11T02:13:52.078Z,17.40
2023-04-11T02:14:52.059Z,17.29
2023-04-11T02:15:52.110Z,17.51
2023-04-11T02:16:52.022Z,17.24
2023-04-11T02:17:52.199Z,17.29
2023-04-11T02:18:52.002Z,17.51
2023-04-11T02:19:52.003Z,17.56
2023-04-11T02:20:52.006Z,17.13
2023-04-11T02:21:51.957Z,17.51
2023-04-11T02:22:51.956Z,17.40
2023-04-11T02:23:51.938Z,17.40
2023-04-11T02:24:51.952Z,17.35
2023-04-11T02:25:51.950Z,17.51
2023-04-11T02:26:51.892Z,17.40
2023-04-11T02:27:51.885Z,17.56
2023-04-11T02:28:51.867Z,17.40
2023-04-11T02:29:51.856Z,17.29
2023-04-11T02:30:51.918Z,17.67
2023-04-11T02:31:51.877Z,17.29
2023-04-11T02:32:51.852Z,17.29
2023-04-11T02:33:51.806Z,17.35
2023-04-11T02:34:51.787Z,17.35
2023-04-11T02:35:51.835Z,17.35
2023-04-11T02:36:51.756Z,17.19
2023-04-11T02:37:51.747Z,17.56
2023-04-11T02:38:51.727Z,17.56
2023-04-11T02:39:51.738Z,17.40
2023-04-11T02:40:51.716Z,17.56
2023-04-11T02:41:51.699Z,17.51
2023-04-11T02:42:51.691Z,17.40
2023-04-11T02:43:51.674Z,17.46
2023-04-11T02:44:51.638Z,17.24
2023-04-11T02:45:56.428Z,17.29
2023-04-11T02:46:52.642Z,16.81
2023-04-11T02:47:51.651Z,16.97
2023-04-11T02:48:51.616Z,17.56
2023-04-11T02:49:51.597Z,17.56
2023-04-11T02:50:51.597Z,17.08
2023-04-11T02:51:51.549Z,17.29
2023-04-11T02:52:51.556Z,16.92
2023-04-11T02:53:51.541Z,17.40
2023-04-11T02:54:51.532Z,17.29
2023-04-11T02:55:51.514Z,16.92
2023-04-11T02:56:51.475Z,17.29
2023-04-11T02:57:51.489Z,17.46
2023-04-11T02:58:51.470Z,17.62
2023-04-11T02:59:51.458Z,17.35
2023-04-11T03:00:51.518Z,17.56
2023-04-11T03:01:51.492Z,17.40
2023-04-11T03:02:51.465Z,17.46
2023-04-11T03:03:51.516Z,17.29
2023-04-11T03:04:51.369Z,17.40
2023-04-11T03:05:51.456Z,17.24
2023-04-11T03:06:51.350Z,17.56
2023-04-11T03:07:51.401Z,17.51
2023-04-11T03:08:51.321Z,17.46
2023-04-11T03:09:51.324Z,17.40
2023-04-11T03:10:51.333Z,17.29
2023-04-11T03:11:51.312Z,17.24
2023-04-11T03:12:51.283Z,17.46
2023-04-11T03:13:51.273Z,17.51
2023-04-11T03:14:51.250Z,17.08
2023-04-11T03:15:51.304Z,17.56
2023-04-11T03:16:51.222Z,17.56
2023-04-11T03:17:51.282Z,17.40
2023-04-11T03:18:51.187Z,17.13
2023-04-11T03:19:51.192Z,17.13
2023-04-11T03:20:51.180Z,17.13
2023-04-11T03:21:51.159Z,17.29
2023-04-11T03:22:51.137Z,17.56
2023-04-11T03:23:51.135Z,17.51
2023-04-11T03:24:51.113Z,17.08
2023-04-11T03:25:51.117Z,17.13
2023-04-11T03:26:51.114Z,17.08
2023-04-11T03:27:51.087Z,17.67
2023-04-11T03:28:51.065Z,17.56
2023-04-11T03:29:51.046Z,17.29
2023-04-11T03:30:51.066Z,16.81
2023-04-11T03:31:51.255Z,17.56
2023-04-11T03:32:51.035Z,17.13
2023-04-11T03:33:51.010Z,17.24
2023-04-11T03:34:51.012Z,17.24
2023-04-11T03:35:51.014Z,17.13
2023-04-11T03:36:50.949Z,17.46
2023-04-11T03:37:50.952Z,17.13
2023-04-11T03:38:50.927Z,17.40
2023-04-11T03:39:50.912Z,17.03
2023-04-11T03:40:50.925Z,17.13
2023-04-11T03:41:50.876Z,17.46
2023-04-11T03:42:50.885Z,17.46
2023-04-11T03:43:50.874Z,17.40
2023-04-11T03:44:50.852Z,17.29
2023-04-11T03:45:50.860Z,17.13
2023-04-11T03:46:50.872Z,17.13
2023-04-11T03:47:50.833Z,16.97
2023-04-11T03:48:50.800Z,17.51
2023-04-11T03:49:50.778Z,17.13
2023-04-11T03:50:50.778Z,17.19
2023-04-11T03:51:50.747Z,16.87
2023-04-11T03:52:50.744Z,17.46
2023-04-11T03:53:50.722Z,17.29
2023-04-11T03:54:50.717Z,17.19
2023-04-11T03:55:50.713Z,17.29
2023-04-11T03:56:50.691Z,17.13
2023-04-11T03:57:50.686Z,17.24
2023-04-11T03:58:50.664Z,17.19
2023-04-11T03:59:50.649Z,17.35
2023-04-11T04:00:50.660Z,17.29
2023-04-11T04:01:50.634Z,17.29
2023-04-11T04:02:50.842Z,17.56
2023-04-11T04:03:50.864Z,17.51
2023-04-11T04:04:50.654Z,17.56
2023-04-11T04:05:50.594Z,17.13
2023-04-11T04:06:50.553Z,17.35
2023-04-11T04:07:50.527Z,17.56
2023-04-11T04:08:50.520Z,17.46
2023-04-11T04:09:50.508Z,17.51
2023-04-11T04:10:50.527Z,17.51
2023-04-11T04:11:50.507Z,17.19
2023-04-11T04:12:50.470Z,17.19
2023-04-11T04:13:50.449Z,17.29
2023-04-11T04:14:50.472Z,16.87
2023-04-11T04:15:50.471Z,17.40
2023-04-11T04:16:50.463Z,17.24
2023-04-11T04:17:50.430Z,17.40
2023-04-11T04:18:50.397Z,17.51
2023-04-11T04:19:50.376Z,16.92
2023-04-11T04:20:50.391Z,17.13
2023-04-11T04:21:50.336Z,16.81
2023-04-11T04:22:50.336Z,17.13
2023-04-11T04:23:50.321Z,16.92
2023-04-11T04:24:50.304Z,17.29
2023-04-11T04:25:50.299Z,17.51
2023-04-11T04:26:50.280Z,16.87
2023-04-11T04:27:50.266Z,17.62
2023-04-11T04:28:50.251Z,17.51
2023-04-11T04:29:52.534Z,16.87
2023-04-11T04:30:51.255Z,16.87
2023-04-11T04:31:50.221Z,16.87
2023-04-11T04:32:50.198Z,16.92
2023-04-11T04:33:50.188Z,17.08
2023-04-11T04:34:50.185Z,17.56
2023-04-11T04:35:50.187Z,17.40
2023-04-11T04:36:50.150Z,17.03
2023-04-11T04:37:50.119Z,16.87
2023-04-11T04:38:50.129Z,16.81
2023-04-11T04:39:50.095Z,16.87
2023-04-11T04:40:50.603Z,16.87
2023-04-11T04:41:50.074Z,16.92
2023-04-11T04:42:50.060Z,17.03
2023-04-11T04:43:50.042Z,17.56
2023-04-11T04:44:50.038Z,16.97
2023-04-11T04:45:50.127Z,17.13
2023-04-11T04:46:50.015Z,17.13
2023-04-11T04:47:50.005Z,17.67
2023-04-11T04:48:49.987Z,17.19
2023-04-11T04:49:49.966Z,17.56
2023-04-11T04:50:49.976Z,17.03
2023-04-11T04:51:49.932Z,17.29
2023-04-11T04:52:49.925Z,17.40
2023-04-11T04:53:49.942Z,17.13
2023-04-11T04:54:49.903Z,16.92
2023-04-11T04:55:49.893Z,16.92
2023-04-11T04:56:49.863Z,17.03
2023-04-11T04:57:49.859Z,17.19
2023-04-11T04:58:49.848Z,17.03
2023-04-11T04:59:49.828Z,17.56
2023-04-11T05:00:49.882Z,17.56
2023-04-11T05:01:49.887Z,17.13
2023-04-11T05:02:49.944Z,17.19
2023-04-11T05:03:49.927Z,17.56
2023-04-11T05:04:49.761Z,17.24
2023-04-11T05:05:49.780Z,16.87
2023-04-11T05:06:49.730Z,16.97
2023-04-11T05:07:49.733Z,17.19
2023-04-11T05:08:49.704Z,16.87
2023-04-11T05:09:49.682Z,17.62
2023-04-11T05:10:49.718Z,17.29
2023-04-11T05:11:49.662Z,17.13
2023-04-11T05:12:49.673Z,17.13
2023-04-11T05:13:49.636Z,17.03
2023-04-11T05:14:49.635Z,17.56
2023-04-11T05:15:49.648Z,17.24
2023-04-11T05:16:49.644Z,17.19
2023-04-11T05:17:49.638Z,17.03
2023-04-11T05:18:49.574Z,17.56
2023-04-11T05:19:49.567Z,17.19
2023-04-11T05:20:49.571Z,17.19
2023-04-11T05:21:49.528Z,16.87
2023-04-11T05:22:49.546Z,17.51
2023-04-11T05:23:49.587Z,17.19
2023-04-11T05:25:59.336Z,17.40
2023-04-11T05:26:59.279Z,17.08
2023-04-11T05:27:59.263Z,17.13
2023-04-11T05:28:59.255Z,16.92
2023-04-11T05:29:59.238Z,17.13
2023-04-11T05:30:59.331Z,16.87
2023-04-11T05:31:59.206Z,16.97
2023-04-11T05:32:59.203Z,16.97
2023-04-11T05:33:59.283Z,17.29
2023-04-11T05:34:59.602Z,16.87
2023-04-11T05:35:59.206Z,16.87
2023-04-11T05:36:59.147Z,17.13
2023-04-11T05:37:59.125Z,17.51
2023-04-11T05:38:59.117Z,16.92
2023-04-11T05:39:59.135Z,16.97
2023-04-11T05:40:59.097Z,17.19
2023-04-11T05:41:59.071Z,17.03
2023-04-11T05:42:59.072Z,16.87
2023-04-11T05:43:59.059Z,16.87
2023-04-11T05:44:59.037Z,17.03
2023-04-11T05:45:59.142Z,16.87
2023-04-11T05:46:59.019Z,17.13
2023-04-11T05:47:59.020Z,17.13
2023-04-11T05:48:58.996Z,16.92
2023-04-11T05:49:59.148Z,17.13
2023-04-11T05:50:58.962Z,17.08
2023-04-11T05:51:58.937Z,16.92
2023-04-11T05:52:58.947Z,17.13
2023-04-11T05:53:59.134Z,16.87
2023-04-11T05:54:58.931Z,16.87
2023-04-11T05:55:58.910Z,16.87
2023-04-11T05:56:58.880Z,16.87
2023-04-11T05:57:58.857Z,16.87
2023-04-11T05:58:58.857Z,17.13
2023-04-11T05:59:58.839Z,16.87
2023-04-11T06:00:58.852Z,16.92
2023-04-11T06:01:58.887Z,17.13
2023-04-11T06:02:58.875Z,17.19
2023-04-11T06:03:59.089Z,17.08
2023-04-11T06:04:58.789Z,17.19
2023-04-11T06:05:58.783Z,17.19
2023-04-11T06:06:58.759Z,17.13
2023-04-11T06:07:58.731Z,17.13
2023-04-11T06:08:58.721Z,16.92
2023-04-11T06:09:58.696Z,16.92
2023-04-11T06:10:58.710Z,17.03
2023-04-11T06:11:58.678Z,17.13
2023-04-11T06:12:58.657Z,16.92
2023-04-11T06:13:58.690Z,17.24
2023-04-11T06:14:58.638Z,16.87
2023-04-11T06:15:58.662Z,17.13
2023-04-11T06:16:58.622Z,17.03
2023-04-11T06:17:58.616Z,16.92
2023-04-11T06:18:58.583Z,16.92
2023-04-11T06:19:58.556Z,16.87
2023-04-11T06:20:58.569Z,17.13
2023-04-11T06:21:58.550Z,16.92
2023-04-11T06:22:58.531Z,16.92
2023-04-11T06:23:58.518Z,16.92
2023-04-11T06:24:58.504Z,17.13
2023-04-11T06:25:58.504Z,16.70
2023-04-11T06:26:58.484Z,17.13
2023-04-11T06:27:58.458Z,17.08
2023-04-11T06:28:58.450Z,16.92
2023-04-11T06:29:58.440Z,16.92
2023-04-11T06:30:58.539Z,17.19
2023-04-11T06:31:58.410Z,16.97
2023-04-11T06:32:58.447Z,16.87
2023-04-11T06:33:58.478Z,16.87
2023-04-11T06:34:58.372Z,17.08
2023-04-11T06:35:58.419Z,16.92
2023-04-11T06:36:58.347Z,16.87
2023-04-11T06:37:58.336Z,17.19
2023-04-11T06:38:58.321Z,17.13
2023-04-11T06:39:58.445Z,17.13
2023-04-11T06:40:58.290Z,16.76
2023-04-11T06:41:58.285Z,17.19
2023-04-11T06:42:58.262Z,17.13
2023-04-11T06:43:58.473Z,17.13
2023-04-11T06:44:58.264Z,16.87
2023-04-11T06:45:58.265Z,17.03
2023-04-11T06:46:58.268Z,16.97
2023-04-11T06:47:58.242Z,16.92
2023-04-11T06:48:58.236Z,16.87
2023-04-11T06:49:58.176Z,17.19
2023-04-11T06:50:58.185Z,16.87
2023-04-11T06:51:58.145Z,17.03
2023-04-11T06:52:58.163Z,17.13
2023-04-11T06:53:58.169Z,17.13
2023-04-11T06:54:58.107Z,16.87
2023-04-11T06:55:58.182Z,16.92
2023-04-11T06:56:58.088Z,17.19
2023-04-11T06:57:58.065Z,16.70
2023-04-11T06:58:58.060Z,17.19
2023-04-11T06:59:58.083Z,16.70
2023-04-11T07:00:58.049Z,16.92
2023-04-11T07:01:58.137Z,17.19
2023-04-11T07:02:58.114Z,17.19
2023-04-11T07:03:58.250Z,16.65
2023-04-11T07:04:58.148Z,17.13
2023-04-11T07:05:57.986Z,16.65
2023-04-11T07:06:57.959Z,16.97
2023-04-11T07:07:57.952Z,16.70
2023-04-11T07:08:57.931Z,16.70
2023-04-11T07:09:57.935Z,16.97
2023-04-11T07:10:57.902Z,16.92
2023-04-11T07:11:57.876Z,16.87
2023-04-11T07:12:57.882Z,16.87
2023-04-11T07:13:58.076Z,17.13
2023-04-11T07:14:57.909Z,16.97
2023-04-11T07:15:57.908Z,16.76
2023-04-11T07:16:57.819Z,16.87
2023-04-11T07:17:57.946Z,16.92
2023-04-11T07:18:57.798Z,17.13
2023-04-11T07:19:57.799Z,17.08
2023-04-11T07:20:57.772Z,16.92
2023-04-11T07:21:57.751Z,16.87
2023-04-11T07:22:57.751Z,16.92
2023-04-11T07:23:57.855Z,17.29
2023-04-11T07:24:57.751Z,16.97
2023-04-11T07:25:57.705Z,17.08
2023-04-11T07:26:57.693Z,16.97
2023-04-11T07:27:57.774Z,17.13
2023-04-11T07:28:57.662Z,16.87
2023-04-11T07:29:57.670Z,16.70
2023-04-11T07:30:57.655Z,16.81
2023-04-11T07:31:57.849Z,16.65
2023-04-11T07:32:57.650Z,16.65
2023-04-11T07:33:57.934Z,16.87
2023-04-11T07:34:57.606Z,16.81
2023-04-11T07:35:57.578Z,17.13
2023-04-11T07:36:57.593Z,17.03
2023-04-11T07:37:57.625Z,16.70
2023-04-11T07:38:57.560Z,17.03
2023-04-11T07:39:57.549Z,16.87
2023-04-11T07:40:57.543Z,17.08
2023-04-11T07:41:57.491Z,16.92
2023-04-11T07:42:57.483Z,16.92
2023-04-11T07:43:57.812Z,16.76
2023-04-11T07:44:57.506Z,16.92
2023-04-11T07:45:57.434Z,16.87
2023-04-11T07:46:57.424Z,17.08
2023-04-11T07:47:57.429Z,16.81
2023-04-11T07:48:57.390Z,17.13
2023-04-11T07:49:57.410Z,16.92
2023-04-11T07:50:57.358Z,16.81
2023-04-11T07:51:57.347Z,16.97
2023-04-11T07:52:57.359Z,17.13
2023-04-11T07:53:57.578Z,16.81
2023-04-11T07:54:57.348Z,16.92
2023-04-11T07:55:57.289Z,16.97
2023-04-11T07:56:57.292Z,16.87
2023-04-11T07:57:57.268Z,17.03
2023-04-11T07:58:57.260Z,17.08
2023-04-11T07:59:57.269Z,16.97
2023-04-11T08:00:57.232Z,17.19
2023-04-11T08:01:57.292Z,17.13
2023-04-11T08:02:57.343Z,16.87
2023-04-11T08:03:57.680Z,17.19
2023-04-11T08:04:57.399Z,16.92
2023-04-11T08:05:57.153Z,16.92
2023-04-11T08:06:57.140Z,16.87
2023-04-11T08:07:57.131Z,16.76
2023-04-11T08:08:57.119Z,16.81
2023-04-11T08:09:57.121Z,17.13
2023-04-11T08:10:57.094Z,16.70
2023-04-11T08:11:57.075Z,16.97
2023-04-11T08:12:57.062Z,16.87
2023-04-11T08:13:57.289Z,16.92
2023-04-11T08:14:57.075Z,16.70
2023-04-11T08:15:57.036Z,16.92
2023-04-11T08:16:57.079Z,16.97
2023-04-11T08:17:57.132Z,16.81
2023-04-11T08:18:57.001Z,16.92
2023-04-11T08:19:57.003Z,16.65
2023-04-11T08:20:56.964Z,16.81
2023-04-11T08:21:56.956Z,17.08
2023-04-11T08:22:56.941Z,16.87
2023-04-11T08:23:57.027Z,17.19
2023-04-11T08:24:56.928Z,16.92
2023-04-11T08:25:56.907Z,16.81
2023-04-11T08:26:56.887Z,16.81
2023-04-11T08:27:57.096Z,17.19
2023-04-11T08:28:56.862Z,16.97
2023-04-11T08:29:56.881Z,17.03
2023-04-11T08:30:56.853Z,16.81
2023-04-11T08:31:56.822Z,16.92
2023-04-11T08:32:56.927Z,16.97
2023-04-11T08:33:59.268Z,16.70
2023-04-11T08:34:56.800Z,16.70
2023-04-11T08:35:56.794Z,17.03
2023-04-11T08:36:56.750Z,17.03
2023-04-11T08:37:56.749Z,16.92
2023-04-11T08:38:56.724Z,16.92
2023-04-11T08:39:56.732Z,16.70
2023-04-11T08:40:56.702Z,16.76
2023-04-11T08:41:56.685Z,16.65
2023-04-11T08:42:56.659Z,16.76
2023-04-11T08:43:56.783Z,16.65
2023-04-11T08:44:56.686Z,17.03
2023-04-11T08:45:56.666Z,16.81
2023-04-11T08:46:56.609Z,16.65
2023-04-11T08:47:56.618Z,16.81
2023-04-11T08:48:56.582Z,17.08
2023-04-11T08:49:56.633Z,17.03
2023-04-11T08:50:56.561Z,16.65
2023-04-11T08:51:56.551Z,16.70
2023-04-11T08:52:56.535Z,16.87
2023-04-11T08:53:56.643Z,16.92
2023-04-11T08:54:56.524Z,16.92
2023-04-11T08:55:56.490Z,17.24
2023-04-11T08:56:56.478Z,16.70
2023-04-11T08:57:56.472Z,17.03
2023-04-11T08:58:56.454Z,16.76
2023-04-11T08:59:56.500Z,16.92
2023-04-11T09:00:56.428Z,16.70
2023-04-11T09:01:56.487Z,16.92
2023-04-11T09:02:56.570Z,16.92
2023-04-11T09:03:56.846Z,17.03
2023-04-11T09:04:56.437Z,16.87
2023-04-11T09:05:56.383Z,16.97
2023-04-11T09:06:57.947Z,16.70
2023-04-11T09:07:56.343Z,16.70
2023-04-11T09:08:56.329Z,16.76
2023-04-11T09:09:56.347Z,16.97
2023-04-11T09:10:56.289Z,16.70
2023-04-11T09:11:56.336Z,16.70
2023-04-11T09:12:56.260Z,16.92
2023-04-11T09:13:56.365Z,16.70
2023-04-11T09:14:56.340Z,16.70
2023-04-11T09:15:56.250Z,16.60
2023-04-11T09:16:56.229Z,16.76
2023-04-11T09:17:58.226Z,16.65
2023-04-11T09:18:56.393Z,16.87
2023-04-11T09:19:56.192Z,16.65
2023-04-11T09:20:56.173Z,16.97
2023-04-11T09:21:56.152Z,16.54
2023-04-11T09:22:56.186Z,16.49
2023-04-11T09:23:56.307Z,16.76
2023-04-11T09:24:56.116Z,16.92
2023-04-11T09:25:56.131Z,16.76
2023-04-11T09:26:56.085Z,16.76
2023-04-11T09:27:56.078Z,16.65
2023-04-11T09:28:56.323Z,16.70
2023-04-11T09:29:56.087Z,16.76
2023-04-11T09:30:56.053Z,16.76
2023-04-11T09:31:56.019Z,16.54
2023-04-11T09:32:56.022Z,16.49
2023-04-11T09:33:56.208Z,17.03
2023-04-11T09:34:55.991Z,16.60
2023-04-11T09:35:56.011Z,16.76
2023-04-11T09:36:55.948Z,16.76
2023-04-11T09:37:55.953Z,16.87
2023-04-11T09:38:55.938Z,16.60
2023-04-11T09:39:55.939Z,16.81
2023-04-11T09:40:55.888Z,16.70
2023-04-11T09:41:55.888Z,16.76
2023-04-11T09:42:55.872Z,16.65
2023-04-11T09:43:56.204Z,16.70
2023-04-11T09:44:55.879Z,16.92
2023-04-11T09:45:55.832Z,16.81
2023-04-11T09:46:55.882Z,16.65
2023-04-11T09:47:55.858Z,16.92
2023-04-11T09:48:55.802Z,16.49
2023-04-11T09:49:55.821Z,16.81
2023-04-11T09:50:58.781Z,16.92
2023-04-11T09:51:55.778Z,16.92
2023-04-11T09:52:57.785Z,16.49
2023-04-11T09:53:56.084Z,17.03
2023-04-11T09:54:55.716Z,16.70
2023-04-11T09:55:55.704Z,16.76
2023-04-11T09:56:55.689Z,16.92
2023-04-11T09:57:55.677Z,16.97
2023-04-11T09:58:55.876Z,16.54
2023-04-11T09:59:55.656Z,16.49
2023-04-11T10:00:55.628Z,16.87
2023-04-11T10:01:55.727Z,16.70
2023-04-11T10:02:55.736Z,16.92
2023-04-11T10:03:55.885Z,17.03
2023-04-11T10:04:55.619Z,16.87
2023-04-11T10:05:55.559Z,16.38
2023-04-11T10:06:55.543Z,16.65
2023-04-11T10:07:55.529Z,16.81
2023-04-11T10:08:55.707Z,16.70
2023-04-11T10:09:55.524Z,16.92
2023-04-11T10:10:55.548Z,16.65
2023-04-11T10:11:55.498Z,16.81
2023-04-11T10:12:55.459Z,16.76
2023-04-11T10:13:55.716Z,17.08
2023-04-11T10:14:55.453Z,16.92
2023-04-11T10:15:55.466Z,16.54
2023-04-11T10:16:55.412Z,17.24
2023-04-11T10:17:55.442Z,16.60
2023-04-11T10:18:55.388Z,16.65
2023-04-11T10:19:55.390Z,16.87
2023-04-11T10:20:55.412Z,16.54
2023-04-11T10:21:55.351Z,16.70
2023-04-11T10:22:55.352Z,16.54
2023-04-11T10:23:55.447Z,16.81
2023-04-11T10:24:55.321Z,16.65
2023-04-11T10:25:55.485Z,16.76
2023-04-11T10:26:55.309Z,16.76
2023-04-11T10:27:55.277Z,16.76
2023-04-11T10:28:55.258Z,16.70
2023-04-11T10:29:55.277Z,17.08
2023-04-11T10:30:55.224Z,16.92
2023-04-11T10:31:55.325Z,17.03
2023-04-11T10:32:55.232Z,16.87
2023-04-11T10:33:55.376Z,16.54
2023-04-11T10:34:55.188Z,16.70
2023-04-11T10:35:55.226Z,16.49
2023-04-11T10:36:55.153Z,16.70
2023-04-11T10:37:55.158Z,16.70
2023-04-11T10:38:55.161Z,16.44
2023-04-11T10:39:55.137Z,16.97
2023-04-11T10:40:55.099Z,16.60
2023-04-11T10:41:55.076Z,16.76
2023-04-11T10:42:55.069Z,16.76
2023-04-11T10:43:55.247Z,16.49
2023-04-11T10:44:55.057Z,16.49
2023-04-11T10:45:55.031Z,16.76
2023-04-11T10:46:55.041Z,16.76
2023-04-11T10:47:55.048Z,16.70
2023-04-11T10:48:54.989Z,16.54
2023-04-11T10:49:54.995Z,16.76
2023-04-11T10:50:54.961Z,16.81
2023-04-11T10:51:54.954Z,16.76
2023-04-11T10:52:54.934Z,16.70
2023-04-11T10:53:54.924Z,16.54
2023-04-11T10:54:54.946Z,17.13
2023-04-11T10:55:54.908Z,16.76
2023-04-11T10:56:54.887Z,16.60
2023-04-11T10:57:54.863Z,16.60
2023-04-11T10:58:54.855Z,16.54
2023-04-11T10:59:54.873Z,16.65
2023-04-11T11:00:54.837Z,16.49
2023-04-11T11:01:54.869Z,16.65
2023-04-11T11:02:55.008Z,16.54
2023-04-11T11:03:54.844Z,16.38
2023-04-11T11:04:54.905Z,16.49
2023-04-11T11:05:54.763Z,16.70
2023-04-11T11:06:57.418Z,16.49
2023-04-11T11:07:54.732Z,16.38
2023-04-11T11:08:54.719Z,16.49
2023-04-11T11:09:54.726Z,16.38
2023-04-11T11:10:56.285Z,16.76
2023-04-11T11:11:54.681Z,16.11
2023-04-11T11:12:54.682Z,16.11
2023-04-11T11:13:54.990Z,16.54
2023-04-11T11:14:54.688Z,16.06
2023-04-11T11:15:54.632Z,16.54
2023-04-11T11:16:54.637Z,16.49
2023-04-11T11:17:54.684Z,16.49
2023-04-11T11:18:54.584Z,16.54
2023-04-11T11:19:54.605Z,16.33
2023-04-11T11:20:54.561Z,16.17
2023-04-11T11:21:54.555Z,16.65
2023-04-11T11:22:54.541Z,16.76
2023-04-11T11:23:54.693Z,16.49
2023-04-11T11:24:54.520Z,17.13
2023-04-11T11:25:54.516Z,16.76
2023-04-11T11:26:54.501Z,16.38
2023-04-11T11:27:54.467Z,16.60
2023-04-11T11:28:54.601Z,16.38
2023-04-11T11:29:54.476Z,16.70
2023-04-11T11:30:55.676Z,16.33
2023-04-11T11:31:54.433Z,16.76
2023-04-11T11:32:54.442Z,16.60
2023-04-11T11:33:58.193Z,16.33
2023-04-11T11:34:55.502Z,16.11
2023-04-11T11:35:54.432Z,16.81
2023-04-11T11:36:54.367Z,16.65
2023-04-11T11:37:54.338Z,16.17
2023-04-11T11:38:54.591Z,16.70
2023-04-11T11:39:54.330Z,16.81
2023-04-11T11:40:54.296Z,16.70
2023-04-11T11:41:54.293Z,16.76
2023-04-11T11:42:54.257Z,16.76
2023-04-11T11:43:54.419Z,16.76
2023-04-11T11:44:54.265Z,16.65
2023-04-11T11:45:54.288Z,16.76
2023-04-11T11:46:54.220Z,17.03
2023-04-11T11:47:54.240Z,16.97
2023-04-11T11:48:54.178Z,16.65
2023-04-11T11:49:54.256Z,16.76
2023-04-11T11:50:54.157Z,16.65
2023-04-11T11:51:54.151Z,16.70
2023-04-11T11:52:54.135Z,16.76
2023-04-11T11:53:54.124Z,16.54
2023-04-11T11:54:54.122Z,16.70
2023-04-11T11:55:54.099Z,16.70
2023-04-11T11:56:54.074Z,16.49
2023-04-11T11:57:54.087Z,16.70
2023-04-11T11:58:54.058Z,16.76
2023-04-11T11:59:54.073Z,16.70
2023-04-11T12:00:54.040Z,16.65
2023-04-11T12:01:54.047Z,16.54
2023-04-11T12:02:54.218Z,16.70
2023-04-11T12:03:54.204Z,16.54
2023-04-11T12:04:54.117Z,16.81
2023-04-11T12:05:53.969Z,16.54
2023-04-11T12:06:53.947Z,16.81
2023-04-11T12:07:53.940Z,16.81
2023-04-11T12:08:54.100Z,16.65
2023-04-11T12:09:54.035Z,16.60
2023-04-11T12:10:53.901Z,16.54
2023-04-11T12:11:53.889Z,16.70
2023-04-11T12:12:54.391Z,16.76
2023-04-11T12:13:53.917Z,16.27
2023-04-11T12:14:53.865Z,16.76
2023-04-11T12:15:53.912Z,16.17
2023-04-11T12:16:53.814Z,16.76
2023-04-11T12:17:53.866Z,16.54
2023-04-11T12:18:53.795Z,16.54
2023-04-11T12:19:53.792Z,16.81
2023-04-11T12:20:53.784Z,16.38
2023-04-11T12:21:53.757Z,16.76
2023-04-11T12:22:54.640Z,16.49
2023-04-11T12:23:53.964Z,16.76
2023-04-11T12:24:53.733Z,16.11
2023-04-11T12:25:53.704Z,16.65
2023-04-11T12:27:06.381Z,16.11
2023-04-11T12:27:54.677Z,16.70
2023-04-11T12:28:53.771Z,16.38
2023-04-11T12:29:53.665Z,16.49
2023-04-11T12:30:53.655Z,16.38
2023-04-11T12:31:53.954Z,16.76
2023-04-11T12:32:53.626Z,16.65
2023-04-11T12:33:53.600Z,16.76
2023-04-11T12:34:53.601Z,16.06
2023-04-11T12:35:53.582Z,16.38
2023-04-11T12:36:53.590Z,16.33
2023-04-11T12:37:53.574Z,16.54
2023-04-11T12:38:53.530Z,16.33
2023-04-11T12:39:53.531Z,16.27
2023-04-11T12:41:00.356Z,16.70
2023-04-11T12:41:54.492Z,16.38
2023-04-11T12:42:57.343Z,16.60
2023-04-11T12:43:53.469Z,16.70
2023-04-11T12:44:53.481Z,16.38
2023-04-11T12:45:53.431Z,16.60
2023-04-11T12:46:53.716Z,16.11
2023-04-11T12:47:53.495Z,16.27
2023-04-11T12:48:53.415Z,16.54
2023-04-11T12:49:53.391Z,16.38
2023-04-11T12:50:53.384Z,16.76
2023-04-11T12:51:53.353Z,16.76
2023-04-11T12:52:53.356Z,16.76
2023-04-11T12:53:53.338Z,16.76